createdAt,value
2023-02-17T00:00:55.263Z,30.00
2023-02-17T00:03:22.656Z,30.50
2023-02-17T00:05:51.090Z,31.20
2023-02-17T00:08:18.331Z,31.70
2023-02-17T00:10:45.869Z,31.10
2023-02-17T00:13:12.993Z,30.70
2023-02-17T00:15:40.266Z,30.70
2023-02-17T00:18:07.305Z,30.80
2023-02-17T00:20:34.393Z,31.10
2023-02-17T00:23:01.623Z,31.00
2023-02-17T00:25:28.650Z,30.80
2023-02-17T00:27:55.763Z,31.50
2023-02-17T00:30:22.941Z,30.60
2023-02-17T00:32:50.090Z,30.50
2023-02-17T00:35:17.157Z,30.00
2023-02-17T00:37:45.739Z,30.40
2023-02-17T00:40:16.083Z,30.10
2023-02-17T00:42:43.288Z,29.90
2023-02-17T00:45:10.600Z,29.40
2023-02-17T00:47:37.677Z,30.10
2023-02-17T00:50:05.373Z,30.10
2023-02-17T00:52:32.761Z,29.50
2023-02-17T00:54:59.782Z,29.30
2023-02-17T00:57:26.917Z,29.40
2023-02-17T00:59:54.249Z,29.40
2023-02-17T01:02:21.260Z,28.90
2023-02-17T01:04:48.352Z,29.50
2023-02-17T01:07:15.487Z,29.50
2023-02-17T01:09:42.528Z,29.20
2023-02-17T01:12:12.586Z,28.50
2023-02-17T01:14:40.107Z,29.40
2023-02-17T01:17:07.215Z,29.80
2023-02-17T01:19:34.346Z,30.30
2023-02-17T01:22:01.480Z,29.90
2023-02-17T01:24:28.660Z,30.20
2023-02-17T01:26:56.065Z,30.70
2023-02-17T01:29:23.192Z,30.60
2023-02-17T01:31:50.219Z,29.90
2023-02-17T01:34:17.281Z,29.60
2023-02-17T01:36:44.393Z,29.80
2023-02-17T01:39:16.796Z,30.30
2023-02-17T01:41:44.587Z,30.20
2023-02-17T01:44:21.879Z,30.10
2023-02-17T01:46:54.641Z,30.20
2023-02-17T01:49:36.225Z,29.80
2023-02-17T01:52:24.985Z,29.70
2023-02-17T01:55:08.368Z,29.90
2023-02-17T01:57:39.544Z,29.80
2023-02-17T02:00:07.914Z,29.90
2023-02-17T02:02:35.223Z,30.60
2023-02-17T02:05:03.637Z,31.20
2023-02-17T02:07:34.470Z,30.50
2023-02-17T02:10:01.518Z,30.40
2023-02-17T02:12:31.454Z,30.00
2023-02-17T02:15:03.302Z,29.80
2023-02-17T02:18:07.546Z,29.10
2023-02-17T02:20:56.160Z,29.80
2023-02-17T02:23:42.092Z,30.30
2023-02-17T02:26:46.186Z,30.10
2023-02-17T02:29:34.683Z,29.60
2023-02-17T02:32:38.625Z,29.50
2023-02-17T02:35:22.753Z,29.70
2023-02-17T02:38:18.258Z,29.50
2023-02-17T02:40:54.362Z,29.30
2023-02-17T02:43:23.820Z,28.50
2023-02-17T02:45:50.990Z,29.00
2023-02-17T02:48:18.191Z,28.70
2023-02-17T02:50:48.222Z,29.20
2023-02-17T02:53:35.458Z,29.10
2023-02-17T02:56:25.770Z,29.20
2023-02-17T02:59:17.351Z,30.00
2023-02-17T03:01:44.328Z,30.20
2023-02-17T03:04:19.916Z,30.60
2023-02-17T03:06:49.374Z,30.80
2023-02-17T03:09:26.411Z,30.20
2023-02-17T03:11:56.432Z,30.30
2023-02-17T03:14:24.048Z,29.70
2023-02-17T03:16:52.465Z,29.10
2023-02-17T03:19:23.645Z,28.30
2023-02-17T03:21:58.764Z,28.60
2023-02-17T03:24:26.080Z,28.50
2023-02-17T03:26:53.319Z,28.20
2023-02-17T03:29:20.513Z,28.00
2023-02-17T03:31:47.709Z,27.50
2023-02-17T03:34:14.901Z,27.80
2023-02-17T03:36:41.994Z,28.00
2023-02-17T03:39:09.062Z,27.40
2023-02-17T03:41:36.560Z,27.80
2023-02-17T03:44:03.690Z,27.70
2023-02-17T03:46:30.767Z,27.70
2023-02-17T03:48:57.795Z,27.70
2023-02-17T03:51:25.854Z,27.70
2023-02-17T03:53:53.337Z,27.60
2023-02-17T03:56:20.796Z,27.30
2023-02-17T03:58:47.990Z,27.10
2023-02-17T04:01:15.366Z,27.50
2023-02-17T04:03:42.870Z,27.40
2023-02-17T04:06:10.941Z,26.90
2023-02-17T04:08:39.011Z,27.20
2023-02-17T04:11:08.663Z,27.10
2023-02-17T04:13:36.413Z,27.50
2023-02-17T04:16:05.294Z,27.40
2023-02-17T04:18:32.793Z,27.10
2023-02-17T04:21:00.041Z,26.80
2023-02-17T04:23:27.771Z,26.40
2023-02-17T04:25:55.119Z,26.30
2023-02-17T04:28:23.418Z,25.90
2023-02-17T04:30:51.874Z,26.30
2023-02-17T04:33:19.589Z,25.70
2023-02-17T04:35:48.312Z,24.60
2023-02-17T04:38:15.414Z,25.70
2023-02-17T04:40:43.321Z,25.50
2023-02-17T04:43:10.440Z,25.30
2023-02-17T04:45:38.489Z,25.30
2023-02-17T04:48:05.723Z,25.70
2023-02-17T04:50:32.828Z,26.10
2023-02-17T04:52:59.918Z,25.90
2023-02-17T04:55:26.982Z,25.50
2023-02-17T04:57:54.729Z,25.80
2023-02-17T05:00:22.130Z,24.80
2023-02-17T05:02:49.140Z,24.90
2023-02-17T05:05:18.793Z,24.50
2023-02-17T05:07:46.420Z,24.80
2023-02-17T05:10:15.514Z,25.00
2023-02-17T05:12:42.567Z,24.70
2023-02-17T05:15:10.993Z,24.60
2023-02-17T05:17:38.315Z,24.70
2023-02-17T05:20:06.614Z,24.80
2023-02-17T05:22:33.695Z,25.00
2023-02-17T05:25:00.881Z,25.30
2023-02-17T05:27:28.082Z,24.90
2023-02-17T05:29:55.281Z,25.00
2023-02-17T05:32:23.408Z,25.10
2023-02-17T05:34:50.512Z,25.20
2023-02-17T05:37:17.780Z,25.40
2023-02-17T05:39:44.826Z,25.60
2023-02-17T05:42:11.922Z,25.60
2023-02-17T05:44:39.048Z,25.10
2023-02-17T05:47:06.402Z,24.90
2023-02-17T05:49:33.447Z,24.90
2023-02-17T05:52:00.584Z,25.40
2023-02-17T05:54:27.801Z,26.00
2023-02-17T05:56:55.091Z,25.40
2023-02-17T05:59:22.242Z,24.70
2023-02-17T06:01:49.355Z,24.90
2023-02-17T06:04:16.513Z,24.40
2023-02-17T06:06:43.790Z,25.10
2023-02-17T06:09:10.780Z,25.70
2023-02-17T06:11:37.862Z,26.00
2023-02-17T06:14:04.975Z,24.70
2023-02-17T06:16:32.224Z,24.30
2023-02-17T06:19:02.296Z,25.20
2023-02-17T06:21:29.488Z,25.30
2023-02-17T06:23:56.624Z,25.30
2023-02-17T06:26:24.263Z,26.10
2023-02-17T06:28:51.375Z,25.50
2023-02-17T06:31:18.719Z,25.10
2023-02-17T06:33:45.911Z,25.20
2023-02-17T06:36:13.029Z,25.00
2023-02-17T06:38:40.149Z,25.30
2023-02-17T06:41:07.220Z,24.70
2023-02-17T06:43:34.309Z,24.90
2023-02-17T06:46:01.457Z,24.80
2023-02-17T06:48:28.867Z,25.00
2023-02-17T06:50:56.034Z,24.60
2023-02-17T06:53:23.025Z,24.70
2023-02-17T06:55:50.078Z,24.90
2023-02-17T06:58:17.135Z,25.10
2023-02-17T07:00:44.136Z,25.30
2023-02-17T07:03:11.338Z,24.50
2023-02-17T07:05:40.330Z,24.10
2023-02-17T07:08:07.695Z,24.30
2023-02-17T07:10:35.258Z,24.50
2023-02-17T07:13:02.355Z,25.10
2023-02-17T07:15:29.416Z,25.50
2023-02-17T07:17:56.534Z,25.10
2023-02-17T07:20:23.582Z,25.00
2023-02-17T07:22:50.729Z,25.40
2023-02-17T07:25:18.066Z,25.60
2023-02-17T07:27:45.089Z,25.30
2023-02-17T07:30:12.580Z,24.70
2023-02-17T07:32:39.680Z,24.50
2023-02-17T07:35:07.134Z,24.40
2023-02-17T07:37:34.642Z,23.70
2023-02-17T07:40:01.826Z,23.80
2023-02-17T07:42:28.898Z,24.00
2023-02-17T07:44:56.317Z,23.80
2023-02-17T07:47:23.418Z,24.10
2023-02-17T07:49:50.468Z,23.80
2023-02-17T07:52:18.743Z,23.10
2023-02-17T07:54:46.349Z,23.50
2023-02-17T07:57:13.502Z,23.30
2023-02-17T07:59:40.651Z,23.20
2023-02-17T08:02:08.048Z,23.50
2023-02-17T08:04:35.103Z,23.50
2023-02-17T08:07:02.222Z,23.80
2023-02-17T08:09:47.876Z,24.20
2023-02-17T08:12:38.763Z,23.60
2023-02-17T08:15:07.973Z,23.60
2023-02-17T08:17:35.575Z,23.50
2023-02-17T08:20:08.720Z,23.40
2023-02-17T08:22:36.899Z,23.40
2023-02-17T08:25:06.265Z,23.20
2023-02-17T08:27:33.875Z,23.20
2023-02-17T08:30:01.175Z,22.70
2023-02-17T08:32:28.689Z,22.70
2023-02-17T08:34:56.955Z,23.50
2023-02-17T08:37:24.442Z,23.20
2023-02-17T08:39:51.569Z,23.30
2023-02-17T08:42:20.120Z,23.80
2023-02-17T08:44:48.408Z,23.40
2023-02-17T08:47:15.538Z,22.90
2023-02-17T08:49:42.858Z,22.80
2023-02-17T08:52:10.453Z,22.60
2023-02-17T08:54:38.502Z,22.80
2023-02-17T08:57:06.426Z,22.70
2023-02-17T08:59:33.999Z,22.70
2023-02-17T09:02:01.969Z,23.10
2023-02-17T09:04:29.207Z,23.40
2023-02-17T09:06:56.989Z,23.90
2023-02-17T09:09:28.482Z,23.90
2023-02-17T09:11:59.400Z,23.30
2023-02-17T09:14:26.777Z,22.60
2023-02-17T09:16:55.388Z,23.40
2023-02-17T09:19:23.559Z,23.80
2023-02-17T09:21:51.190Z,23.40
2023-02-17T09:24:18.589Z,23.80
2023-02-17T09:26:46.109Z,23.30
2023-02-17T09:29:13.453Z,23.10
2023-02-17T09:31:40.793Z,23.10
2023-02-17T09:34:07.893Z,23.10
2023-02-17T09:36:40.021Z,22.90
2023-02-17T09:39:07.152Z,22.50
2023-02-17T09:41:48.009Z,22.80
2023-02-17T09:44:35.215Z,22.80
2023-02-17T09:47:16.393Z,23.60
2023-02-17T09:49:45.651Z,24.30
2023-02-17T09:52:24.123Z,24.50
2023-02-17T09:55:04.357Z,24.80
2023-02-17T09:57:43.568Z,24.50
2023-02-17T10:00:21.788Z,23.50
2023-02-17T10:03:18.244Z,23.90
2023-02-17T10:06:22.125Z,24.10
2023-02-17T10:09:03.126Z,24.30
2023-02-17T10:11:35.425Z,24.20
2023-02-17T10:14:16.308Z,24.00
2023-02-17T10:16:54.334Z,23.90
2023-02-17T10:19:36.482Z,23.50
2023-02-17T10:22:20.043Z,22.90
2023-02-17T10:24:47.208Z,22.70
2023-02-17T10:27:30.274Z,22.40
2023-02-17T10:30:04.635Z,22.00
2023-02-17T10:32:40.120Z,22.60
2023-02-17T10:35:23.038Z,22.50
2023-02-17T10:38:13.076Z,23.30
2023-02-17T10:40:40.909Z,23.50
2023-02-17T10:43:11.232Z,23.00
2023-02-17T10:45:41.183Z,23.30
2023-02-17T10:48:12.513Z,23.40
2023-02-17T10:50:42.844Z,23.10
2023-02-17T10:53:22.849Z,22.90
2023-02-17T10:56:18.728Z,22.90
2023-02-17T10:59:26.906Z,22.30
2023-02-17T11:02:00.591Z,22.60
2023-02-17T11:04:27.601Z,23.00
2023-02-17T11:06:55.968Z,22.90
2023-02-17T11:09:34.827Z,22.70
2023-02-17T11:12:10.621Z,22.00
2023-02-17T11:14:44.042Z,23.10
2023-02-17T11:17:35.952Z,22.10
2023-02-17T11:20:09.935Z,23.00
2023-02-17T11:22:44.632Z,23.10
2023-02-17T11:25:30.149Z,23.50
2023-02-17T11:28:00.206Z,22.60
2023-02-17T11:30:29.236Z,22.30
2023-02-17T11:32:56.765Z,22.20
2023-02-17T11:35:50.329Z,22.80
2023-02-17T11:38:21.955Z,22.80
2023-02-17T11:40:56.961Z,23.00
2023-02-17T11:43:28.543Z,22.70
2023-02-17T11:46:14.243Z,23.00
2023-02-17T11:48:50.460Z,24.30
2023-02-17T11:51:45.448Z,25.10
2023-02-17T11:54:45.350Z,25.10
2023-02-17T11:57:19.420Z,25.20
2023-02-17T11:59:49.380Z,25.30
2023-02-17T12:02:46.963Z,25.20
2023-02-17T12:05:52.164Z,25.50
2023-02-17T12:08:27.549Z,24.30
2023-02-17T12:11:06.413Z,24.10
2023-02-17T12:13:36.490Z,23.40
2023-02-17T12:16:21.793Z,22.30
2023-02-17T12:19:10.058Z,23.00
2023-02-17T12:22:05.193Z,23.10
2023-02-17T12:24:51.687Z,23.00
2023-02-17T12:27:41.766Z,22.90
2023-02-17T12:30:44.241Z,22.60
2023-02-17T12:33:35.797Z,21.70
2023-02-17T12:36:07.485Z,21.80
2023-02-17T12:38:44.083Z,21.40
2023-02-17T12:41:17.881Z,21.70
2023-02-17T12:43:51.408Z,21.70
2023-02-17T12:46:39.767Z,22.10
2023-02-17T12:49:17.683Z,21.90
2023-02-17T12:51:49.997Z,22.00
2023-02-17T12:54:38.766Z,22.70
2023-02-17T12:57:11.600Z,22.50
2023-02-17T12:59:48.462Z,23.10
2023-02-17T13:02:22.868Z,24.30
2023-02-17T13:04:55.864Z,23.70
2023-02-17T13:07:45.105Z,23.70
2023-02-17T13:10:35.588Z,24.00
2023-02-17T13:13:17.157Z,24.10
2023-02-17T13:15:46.508Z,24.80
2023-02-17T13:18:32.307Z,24.70
2023-02-17T13:21:20.588Z,25.00
2023-02-17T13:24:09.131Z,25.20
2023-02-17T13:26:38.180Z,25.80
2023-02-17T13:29:30.741Z,25.60
2023-02-17T13:32:02.422Z,25.50
2023-02-17T13:34:37.538Z,25.40
2023-02-17T13:37:44.883Z,25.10
2023-02-17T13:40:20.763Z,24.60
2023-02-17T13:42:52.930Z,24.60
2023-02-17T13:45:29.280Z,24.90
2023-02-17T13:48:10.805Z,24.80
2023-02-17T13:50:43.963Z,24.90
2023-02-17T13:53:32.986Z,25.30
2023-02-17T13:56:12.556Z,25.60
2023-02-17T13:58:41.672Z,25.70
2023-02-17T14:01:16.091Z,26.10
2023-02-17T14:03:50.915Z,25.80
2023-02-17T14:06:38.226Z,26.40
2023-02-17T14:09:24.382Z,25.60
2023-02-17T14:11:53.231Z,24.50
2023-02-17T14:14:22.670Z,25.00
2023-02-17T14:17:01.859Z,25.70
2023-02-17T14:19:29.952Z,26.20
2023-02-17T14:22:04.384Z,26.50
2023-02-17T14:24:39.043Z,26.10
2023-02-17T14:27:09.050Z,25.50
2023-02-17T14:29:48.339Z,25.50
2023-02-17T14:32:33.515Z,25.40
2023-02-17T14:35:12.763Z,25.10
2023-02-17T14:37:41.587Z,24.50
2023-02-17T14:40:23.661Z,24.30
2023-02-17T14:42:51.444Z,25.10
2023-02-17T14:45:20.690Z,24.60
2023-02-17T14:47:48.169Z,24.30
2023-02-17T14:50:17.590Z,24.40
2023-02-17T14:52:48.210Z,24.50
2023-02-17T14:55:42.369Z,25.30
2023-02-17T14:58:17.889Z,25.40
2023-02-17T15:00:45.043Z,24.40
2023-02-17T15:03:12.091Z,24.60
2023-02-17T15:05:42.563Z,24.60
2023-02-17T15:08:19.554Z,24.70
2023-02-17T15:10:47.260Z,24.80
2023-02-17T15:13:20.772Z,24.50
2023-02-17T15:15:49.517Z,24.40
2023-02-17T15:18:20.812Z,24.50
2023-02-17T15:20:50.620Z,25.00
2023-02-17T15:23:22.720Z,24.80
2023-02-17T15:25:51.507Z,25.00
2023-02-17T15:28:20.343Z,25.00
2023-02-17T15:30:54.563Z,24.50
2023-02-17T15:33:23.590Z,24.70
2023-02-17T15:35:56.480Z,24.50
2023-02-17T15:38:24.308Z,24.70
2023-02-17T15:40:51.643Z,24.80
2023-02-17T15:43:22.235Z,25.00
2023-02-17T15:45:49.718Z,25.50
2023-02-17T15:48:27.744Z,25.80
2023-02-17T15:50:54.981Z,26.20
2023-02-17T15:53:22.368Z,25.90
2023-02-17T15:55:50.023Z,25.00
2023-02-17T15:58:20.300Z,24.50
2023-02-17T16:00:48.712Z,24.40
2023-02-17T16:03:16.519Z,24.70
2023-02-17T16:05:44.201Z,26.00
2023-02-17T16:08:13.600Z,26.40
2023-02-17T16:10:42.654Z,26.80
2023-02-17T16:13:14.831Z,27.20
2023-02-17T16:15:42.933Z,26.90
2023-02-17T16:18:24.467Z,27.70
2023-02-17T16:20:52.033Z,26.30
2023-02-17T16:23:19.747Z,26.00
2023-02-17T16:25:48.362Z,25.90
2023-02-17T16:28:18.370Z,25.70
2023-02-17T16:30:48.709Z,24.90
2023-02-17T16:33:16.924Z,25.00
2023-02-17T16:35:44.038Z,26.00
2023-02-17T16:38:24.498Z,25.70
2023-02-17T16:40:52.933Z,25.80
2023-02-17T16:43:27.008Z,26.30
2023-02-17T16:46:02.569Z,27.30
2023-02-17T16:48:33.357Z,26.80
2023-02-17T16:51:00.526Z,27.00
2023-02-17T16:53:29.840Z,26.50
2023-02-17T16:55:57.210Z,27.00
2023-02-17T16:58:26.728Z,27.70
2023-02-17T17:00:56.155Z,27.30
2023-02-17T17:03:23.667Z,26.30
2023-02-17T17:05:52.830Z,27.00
2023-02-17T17:08:21.937Z,26.90
2023-02-17T17:10:49.705Z,25.90
2023-02-17T17:13:17.056Z,25.90
2023-02-17T17:15:45.630Z,25.30
2023-02-17T17:18:21.192Z,25.40
2023-02-17T17:20:50.136Z,25.60
2023-02-17T17:23:18.935Z,24.90
2023-02-17T17:25:47.167Z,24.70
2023-02-17T17:28:16.468Z,24.60
2023-02-17T17:30:43.678Z,24.60
2023-02-17T17:33:10.874Z,24.40
2023-02-17T17:35:38.115Z,24.50
2023-02-17T17:38:05.847Z,24.60
2023-02-17T17:40:48.443Z,25.60
2023-02-17T17:43:20.723Z,24.60
2023-02-17T17:45:49.468Z,25.50
2023-02-17T17:48:17.606Z,24.90
2023-02-17T17:50:45.032Z,25.00
2023-02-17T17:53:12.342Z,24.60
2023-02-17T17:55:39.364Z,24.80
2023-02-17T17:58:06.517Z,25.70
2023-02-17T18:00:33.754Z,25.60
2023-02-17T18:03:00.802Z,25.60
2023-02-17T18:05:28.825Z,24.90
2023-02-17T18:07:56.503Z,25.10
2023-02-17T18:10:23.809Z,25.40
2023-02-17T18:12:51.135Z,25.00
2023-02-17T18:15:19.003Z,24.90
2023-02-17T18:17:48.071Z,25.20
2023-02-17T18:20:16.624Z,25.50
2023-02-17T18:22:43.942Z,25.30
2023-02-17T18:25:12.292Z,25.20
2023-02-17T18:27:44.945Z,25.60
2023-02-17T18:30:16.247Z,25.30
2023-02-17T18:32:44.371Z,24.20
2023-02-17T18:35:12.304Z,24.10
2023-02-17T18:37:41.035Z,23.30
2023-02-17T18:40:12.661Z,23.40
2023-02-17T18:42:41.237Z,23.70
2023-02-17T18:45:09.275Z,25.00
2023-02-17T18:47:36.408Z,24.40
2023-02-17T18:50:04.420Z,23.50
2023-02-17T18:52:31.494Z,23.30
2023-02-17T18:54:59.486Z,23.80
2023-02-17T18:57:26.518Z,23.80
2023-02-17T18:59:53.624Z,23.50
2023-02-17T19:02:22.215Z,23.90
2023-02-17T19:04:52.586Z,23.80
2023-02-17T19:07:20.306Z,24.00
2023-02-17T19:09:51.776Z,23.50
2023-02-17T19:12:19.013Z,23.10
2023-02-17T19:14:48.004Z,23.90
2023-02-17T19:17:18.437Z,23.20
2023-02-17T19:19:45.600Z,23.50
2023-02-17T19:22:12.800Z,23.30
2023-02-17T19:24:41.399Z,23.70
2023-02-17T19:27:09.326Z,23.90
2023-02-17T19:29:36.565Z,23.50
2023-02-17T19:32:04.578Z,22.90
2023-02-17T19:34:32.204Z,22.90
2023-02-17T19:36:59.502Z,22.10
2023-02-17T19:39:26.676Z,23.00
2023-02-17T19:41:53.847Z,23.00
2023-02-17T19:44:21.036Z,21.80
2023-02-17T19:46:48.218Z,22.40
2023-02-17T19:49:15.358Z,21.80
2023-02-17T19:51:42.708Z,23.10
2023-02-17T19:54:09.811Z,24.00
2023-02-17T19:56:39.043Z,22.20
2023-02-17T19:59:06.283Z,22.60
2023-02-17T20:01:35.103Z,23.30
2023-02-17T20:04:04.693Z,23.10
2023-02-17T20:06:44.420Z,23.20
2023-02-17T20:09:15.974Z,24.30
2023-02-17T20:11:44.621Z,24.50
2023-02-17T20:14:11.823Z,25.10
2023-02-17T20:16:39.643Z,24.70
2023-02-17T20:19:07.421Z,24.30
2023-02-17T20:21:38.548Z,23.30
2023-02-17T20:24:06.535Z,23.10
2023-02-17T20:26:39.854Z,23.90
2023-02-17T20:29:07.080Z,24.50
2023-02-17T20:31:36.089Z,23.70
2023-02-17T20:34:05.211Z,23.60
2023-02-17T20:36:32.960Z,22.70
2023-02-17T20:39:00.439Z,23.10
2023-02-17T20:41:27.595Z,22.90
2023-02-17T20:43:54.637Z,23.80
2023-02-17T20:46:27.815Z,23.80
2023-02-17T20:48:55.818Z,23.00
2023-02-17T20:51:23.282Z,23.10
2023-02-17T20:53:51.085Z,23.40
2023-02-17T20:56:21.233Z,23.90
2023-02-17T20:58:48.598Z,24.10
2023-02-17T21:01:15.844Z,23.00
2023-02-17T21:03:42.969Z,23.20
2023-02-17T21:06:27.951Z,23.20
2023-02-17T21:08:57.935Z,22.70
2023-02-17T21:11:25.070Z,21.40
2023-02-17T21:13:52.787Z,20.80
2023-02-17T21:16:23.644Z,20.80
2023-02-17T21:18:50.886Z,21.40
2023-02-17T21:21:18.064Z,21.60
2023-02-17T21:23:45.466Z,21.20
2023-02-17T21:26:13.414Z,21.10
2023-02-17T21:28:41.404Z,21.10
2023-02-17T21:31:08.731Z,21.40
2023-02-17T21:33:42.239Z,21.80
2023-02-17T21:36:14.787Z,22.10
2023-02-17T21:38:45.580Z,22.10
2023-02-17T21:41:18.328Z,21.80
2023-02-17T21:44:04.309Z,22.00
2023-02-17T21:46:31.549Z,21.10
2023-02-17T21:49:01.516Z,21.80
2023-02-17T21:51:29.221Z,22.00
2023-02-17T21:53:56.764Z,22.40
2023-02-17T21:56:24.416Z,21.70
2023-02-17T21:58:54.244Z,21.00
2023-02-17T22:01:23.236Z,21.60
2023-02-17T22:03:50.744Z,20.90
2023-02-17T22:06:30.072Z,21.00
2023-02-17T22:08:59.023Z,21.80
2023-02-17T22:11:33.872Z,21.60
2023-02-17T22:14:07.058Z,22.60
2023-02-17T22:16:36.187Z,21.40
2023-02-17T22:19:08.137Z,21.50
2023-02-17T22:21:35.455Z,21.50
2023-02-17T22:24:02.810Z,21.10
2023-02-17T22:26:30.621Z,21.20
2023-02-17T22:28:57.878Z,21.20
2023-02-17T22:31:27.594Z,21.00
2023-02-17T22:33:57.959Z,21.70
2023-02-17T22:36:27.399Z,20.80
2023-02-17T22:38:54.945Z,20.80
2023-02-17T22:41:24.918Z,21.00
2023-02-17T22:43:53.112Z,21.20
2023-02-17T22:46:22.479Z,21.50
2023-02-17T22:48:52.552Z,21.80
2023-02-17T22:51:22.997Z,22.60
2023-02-17T22:53:50.189Z,22.70
2023-02-17T22:56:17.290Z,23.20
2023-02-17T22:58:44.484Z,23.00
2023-02-17T23:01:15.915Z,23.10
2023-02-17T23:03:43.995Z,22.90
2023-02-17T23:06:20.359Z,22.90
2023-02-17T23:08:48.736Z,23.80
2023-02-17T23:11:39.698Z,22.50
2023-02-17T23:14:07.756Z,21.40
2023-02-17T23:16:34.932Z,21.50
2023-02-17T23:19:05.032Z,21.20
2023-02-17T23:21:32.136Z,20.70
2023-02-17T23:23:59.394Z,21.50
2023-02-17T23:26:26.652Z,21.20
2023-02-17T23:28:53.710Z,22.00
2023-02-17T23:31:20.788Z,22.60
2023-02-17T23:33:48.008Z,22.90
2023-02-17T23:36:16.733Z,22.20
2023-02-17T23:38:43.774Z,21.90
2023-02-17T23:41:11.208Z,22.00
2023-02-17T23:43:38.340Z,21.80
2023-02-17T23:46:05.949Z,22.10
2023-02-17T23:48:33.176Z,23.40
2023-02-17T23:51:02.775Z,23.10
2023-02-17T23:53:30.968Z,22.40
2023-02-17T23:56:06.384Z,21.70
2023-02-17T23:58:34.630Z,22.60
